createdAt,value
2019-01-24T00:00:14.988Z,99660.11
2019-01-24T00:01:18.643Z,99658.27
2019-01-24T00:02:22.250Z,99654.72
2019-01-24T00:03:25.773Z,99661.00
2019-01-24T00:04:29.265Z,99666.81
2019-01-24T00:05:32.804Z,99670.36
2019-01-24T00:06:36.447Z,99667.62
2019-01-24T00:07:39.956Z,99669.55
2019-01-24T00:08:43.486Z,99666.58
2019-01-24T00:09:46.988Z,99666.91
2019-01-24T00:10:50.621Z,99668.84
2019-01-24T00:11:54.111Z,99668.38
2019-01-24T00:12:57.672Z,99667.00
2019-01-24T00:14:01.321Z,99673.61
2019-01-24T00:15:07.639Z,99667.30
2019-01-24T00:16:11.214Z,99672.55
2019-01-24T00:17:14.755Z,99671.74
2019-01-24T00:18:18.379Z,99675.61
2019-01-24T00:19:21.915Z,99676.98
2019-01-24T00:20:25.580Z,99678.68
2019-01-24T00:21:29.144Z,99681.19
2019-01-24T00:22:32.631Z,99679.58
2019-01-24T00:23:36.195Z,99678.54
2019-01-24T00:24:39.721Z,99684.81
2019-01-24T00:25:43.199Z,99686.52
2019-01-24T00:26:46.756Z,99686.52
2019-01-24T00:27:50.438Z,99691.75
2019-01-24T00:28:53.884Z,99692.32
2019-01-24T00:29:57.410Z,99696.76
2019-01-24T00:31:00.914Z,99688.55
2019-01-24T00:32:04.477Z,99692.65
2019-01-24T00:33:08.106Z,99690.00
2019-01-24T00:34:11.606Z,99696.28
2019-01-24T00:35:15.546Z,99696.28
2019-01-24T00:36:19.169Z,99698.75
2019-01-24T00:37:22.666Z,99694.14
2019-01-24T00:38:26.228Z,99703.72
2019-01-24T00:39:29.773Z,99699.38
2019-01-24T00:40:33.404Z,99702.68
2019-01-24T00:41:37.007Z,99705.19
2019-01-24T00:42:40.545Z,99703.81
2019-01-24T00:43:44.154Z,99704.14
2019-01-24T00:44:47.618Z,99708.81
2019-01-24T00:45:51.373Z,99710.75
2019-01-24T00:46:54.926Z,99710.51
2019-01-24T00:47:58.484Z,99715.51
2019-01-24T00:49:02.028Z,99707.86
2019-01-24T00:50:08.533Z,99708.99
2019-01-24T00:51:12.059Z,99710.93
2019-01-24T00:52:15.612Z,99713.99
2019-01-24T00:53:19.102Z,99709.89
2019-01-24T00:54:22.594Z,99714.80
2019-01-24T00:55:26.166Z,99715.66
2019-01-24T00:56:29.681Z,99712.92
2019-01-24T00:57:33.171Z,99707.77
2019-01-24T00:58:36.736Z,99713.01
2019-01-24T00:59:40.290Z,99710.84
2019-01-24T01:00:43.913Z,99717.20
2019-01-24T01:01:47.504Z,99715.84
2019-01-24T01:02:51.230Z,99714.64
2019-01-24T01:03:54.716Z,99721.88
2019-01-24T01:04:58.260Z,99716.73
2019-01-24T01:06:02.219Z,99720.59
2019-01-24T01:07:06.237Z,99728.80
2019-01-24T01:08:09.846Z,99729.94
2019-01-24T01:09:13.408Z,99726.39
2019-01-24T01:10:17.342Z,99728.33
2019-01-24T01:11:20.897Z,99728.09
2019-01-24T01:12:24.490Z,99731.39
2019-01-24T01:13:27.976Z,99727.84
2019-01-24T01:14:31.461Z,99733.89
2019-01-24T01:15:35.082Z,99737.19
2019-01-24T01:16:38.640Z,99731.72
2019-01-24T01:17:42.271Z,99736.95
2019-01-24T01:18:45.897Z,99729.84
2019-01-24T01:19:49.470Z,99736.69
2019-01-24T01:20:54.658Z,99731.06
2019-01-24T01:21:58.245Z,99737.58
2019-01-24T01:23:01.927Z,99739.50
2019-01-24T01:24:05.640Z,99745.55
2019-01-24T01:25:11.577Z,99741.20
2019-01-24T01:26:15.050Z,99740.96
2019-01-24T01:27:18.662Z,99739.59
2019-01-24T01:28:22.268Z,99739.59
2019-01-24T01:29:25.741Z,99745.06
2019-01-24T01:30:29.309Z,99741.84
2019-01-24T01:31:32.866Z,99745.95
2019-01-24T01:32:36.444Z,99748.45
2019-01-24T01:33:39.948Z,99748.21
2019-01-24T01:34:43.499Z,99752.88
2019-01-24T01:35:47.040Z,99745.23
2019-01-24T01:36:50.617Z,99748.53
2019-01-24T01:37:54.271Z,99748.86
2019-01-24T01:38:57.773Z,99752.40
2019-01-24T01:40:01.344Z,99757.31
2019-01-24T01:41:05.150Z,99755.46
2019-01-24T01:42:08.651Z,99757.63
2019-01-24T01:43:12.297Z,99755.19
2019-01-24T01:44:15.877Z,99760.66
2019-01-24T01:45:21.361Z,99760.42
2019-01-24T01:46:24.822Z,99762.91
2019-01-24T01:47:28.395Z,99766.22
2019-01-24T01:48:31.931Z,99762.44
2019-01-24T01:49:35.472Z,99768.71
2019-01-24T01:50:39.056Z,99767.91
2019-01-24T01:51:42.593Z,99766.30
2019-01-24T01:52:46.230Z,99770.64
2019-01-24T01:53:49.808Z,99770.64
2019-01-24T01:54:53.343Z,99775.07
2019-01-24T01:55:56.845Z,99775.39
2019-01-24T01:57:00.404Z,99778.38
2019-01-24T01:58:04.117Z,99779.50
2019-01-24T01:59:07.650Z,99783.92
2019-01-24T02:00:20.639Z,99789.64
2019-01-24T02:01:24.102Z,99782.56
2019-01-24T02:02:27.605Z,99780.70
2019-01-24T02:03:31.167Z,99777.97
2019-01-24T02:04:34.768Z,99787.87
2019-01-24T02:05:38.263Z,99783.20
2019-01-24T02:06:41.818Z,99786.27
2019-01-24T02:07:45.387Z,99784.66
2019-01-24T02:08:48.931Z,99787.95
2019-01-24T02:09:52.495Z,99786.31
2019-01-24T02:10:56.083Z,99785.51
2019-01-24T02:11:59.687Z,99789.38
2019-01-24T02:13:03.192Z,99786.63
2019-01-24T02:14:06.968Z,99789.69
2019-01-24T02:15:12.260Z,99792.19
2019-01-24T02:16:15.769Z,99798.46
2019-01-24T02:17:19.240Z,99802.08
2019-01-24T02:18:22.786Z,99799.91
2019-01-24T02:19:26.288Z,99797.73
2019-01-24T02:20:29.847Z,99785.51
2019-01-24T02:21:33.777Z,99794.20
2019-01-24T02:22:37.609Z,99796.45
2019-01-24T02:23:41.125Z,99797.25
2019-01-24T02:24:44.775Z,99788.81
2019-01-24T02:25:48.450Z,99788.33
2019-01-24T02:26:51.902Z,99792.42
2019-01-24T02:27:55.474Z,99793.80
2019-01-24T02:28:59.049Z,99798.22
2019-01-24T02:30:02.575Z,99795.48
2019-01-24T02:31:06.216Z,99795.21
2019-01-24T02:32:09.838Z,99796.58
2019-01-24T02:33:13.409Z,99801.24
2019-01-24T02:34:16.889Z,99801.24
2019-01-24T02:35:20.508Z,99805.10
2019-01-24T02:36:24.049Z,99800.20
2019-01-24T02:37:27.534Z,99802.13
2019-01-24T02:38:31.110Z,99804.30
2019-01-24T02:39:34.644Z,99802.13
2019-01-24T02:40:38.168Z,99801.97
2019-01-24T02:41:41.700Z,99805.75
2019-01-24T02:42:45.330Z,99812.91
2019-01-24T02:43:48.837Z,99812.66
2019-01-24T02:44:52.331Z,99811.86
2019-01-24T02:45:55.950Z,99815.71
2019-01-24T02:46:59.635Z,99810.81
2019-01-24T02:48:03.085Z,99812.50
2019-01-24T02:49:06.689Z,99808.16
2019-01-24T02:50:13.418Z,99807.34
2019-01-24T02:51:16.919Z,99814.19
2019-01-24T02:52:20.511Z,99803.56
2019-01-24T02:53:24.217Z,99807.67
2019-01-24T02:54:27.895Z,99805.22
2019-01-24T02:55:31.891Z,99803.30
2019-01-24T02:56:35.399Z,99804.94
2019-01-24T02:57:38.897Z,99807.67
2019-01-24T02:58:42.384Z,99804.94
2019-01-24T02:59:45.963Z,99809.03
2019-01-24T03:00:49.582Z,99808.47
2019-01-24T03:01:53.103Z,99812.02
2019-01-24T03:02:56.579Z,99806.55
2019-01-24T03:04:00.265Z,99804.61
2019-01-24T03:05:05.527Z,99809.52
2019-01-24T03:06:09.189Z,99814.98
2019-01-24T03:07:12.739Z,99811.94
2019-01-24T03:08:16.367Z,99807.59
2019-01-24T03:09:19.930Z,99811.69
2019-01-24T03:10:23.420Z,99810.33
2019-01-24T03:11:26.941Z,99808.72
2019-01-24T03:12:30.463Z,99814.98
2019-01-24T03:13:33.999Z,99818.28
2019-01-24T03:14:37.531Z,99818.60
2019-01-24T03:15:41.025Z,99817.80
2019-01-24T03:16:44.589Z,99823.55
2019-01-24T03:17:48.244Z,99820.02
2019-01-24T03:18:52.302Z,99817.84
2019-01-24T03:19:55.783Z,99815.43
2019-01-24T03:20:59.283Z,99815.19
2019-01-24T03:22:02.805Z,99816.55
2019-01-24T03:23:06.451Z,99815.27
2019-01-24T03:24:09.952Z,99815.75
2019-01-24T03:25:15.712Z,99814.70
2019-01-24T03:26:19.353Z,99814.78
2019-01-24T03:27:23.000Z,99816.15
2019-01-24T03:28:26.515Z,99815.02
2019-01-24T03:29:30.014Z,99817.52
2019-01-24T03:30:33.567Z,99816.15
2019-01-24T03:31:37.153Z,99813.98
2019-01-24T03:32:40.676Z,99813.73
2019-01-24T03:33:44.245Z,99814.54
2019-01-24T03:34:47.887Z,99817.59
2019-01-24T03:35:51.449Z,99815.42
2019-01-24T03:36:54.951Z,99812.69
2019-01-24T03:37:58.452Z,99819.77
2019-01-24T03:39:02.006Z,99815.42
2019-01-24T03:40:08.917Z,99817.59
2019-01-24T03:41:12.404Z,99816.78
2019-01-24T03:42:15.882Z,99817.83
2019-01-24T03:43:19.437Z,99813.98
2019-01-24T03:44:22.960Z,99818.00
2019-01-24T03:45:26.535Z,99818.16
2019-01-24T03:46:30.111Z,99820.58
2019-01-24T03:47:33.632Z,99823.27
2019-01-24T03:48:37.180Z,99819.97
2019-01-24T03:49:40.706Z,99823.44
2019-01-24T03:50:44.331Z,99819.25
2019-01-24T03:51:47.812Z,99819.42
2019-01-24T03:52:51.695Z,99821.75
2019-01-24T03:53:55.249Z,99821.38
2019-01-24T03:54:58.874Z,99814.39
2019-01-24T03:56:02.607Z,99825.36
2019-01-24T03:57:06.145Z,99819.80
2019-01-24T03:58:09.889Z,99826.19
2019-01-24T03:59:13.486Z,99825.13
2019-01-24T04:00:22.802Z,99815.73
2019-01-24T04:01:26.301Z,99818.25
2019-01-24T04:02:29.913Z,99821.01
2019-01-24T04:03:33.561Z,99820.51
2019-01-24T04:04:37.145Z,99816.16
2019-01-24T04:05:40.780Z,99819.44
2019-01-24T04:06:44.324Z,99821.34
2019-01-24T04:07:47.801Z,99821.23
2019-01-24T04:08:51.377Z,99826.29
2019-01-24T04:09:54.955Z,99823.44
2019-01-24T04:10:58.527Z,99816.86
2019-01-24T04:12:02.015Z,99828.75
2019-01-24T04:13:05.585Z,99824.41
2019-01-24T04:14:09.092Z,99823.38
2019-01-24T04:15:15.431Z,99822.38
2019-01-24T04:16:18.995Z,99830.03
2019-01-24T04:17:22.470Z,99829.84
2019-01-24T04:18:26.166Z,99827.38
2019-01-24T04:19:29.623Z,99828.11
2019-01-24T04:20:33.191Z,99830.01
2019-01-24T04:21:36.724Z,99828.64
2019-01-24T04:22:40.263Z,99836.88
2019-01-24T04:23:43.759Z,99838.27
2019-01-24T04:24:47.248Z,99839.36
2019-01-24T04:25:50.719Z,99837.88
2019-01-24T04:26:54.337Z,99842.93
2019-01-24T04:27:57.798Z,99845.96
2019-01-24T04:29:01.313Z,99838.34
2019-01-24T04:30:07.915Z,99844.17
2019-01-24T04:31:11.459Z,99840.17
2019-01-24T04:32:15.059Z,99837.25
2019-01-24T04:33:18.527Z,99846.75
2019-01-24T04:34:22.005Z,99853.73
2019-01-24T04:35:25.638Z,99851.55
2019-01-24T04:36:29.247Z,99854.84
2019-01-24T04:37:32.775Z,99854.03
2019-01-24T04:38:36.297Z,99857.92
2019-01-24T04:39:39.820Z,99854.38
2019-01-24T04:40:43.397Z,99860.67
2019-01-24T04:41:47.116Z,99864.14
2019-01-24T04:42:50.754Z,99864.37
2019-01-24T04:43:56.535Z,99862.91
2019-01-24T04:45:00.010Z,99870.35
2019-01-24T04:46:03.510Z,99865.32
2019-01-24T04:47:07.006Z,99871.73
2019-01-24T04:48:10.530Z,99864.86
2019-01-24T04:49:14.162Z,99855.24
2019-01-24T04:50:18.519Z,99864.33
2019-01-24T04:51:22.015Z,99870.02
2019-01-24T04:52:25.512Z,99869.32
2019-01-24T04:53:29.077Z,99866.23
2019-01-24T04:54:32.582Z,99865.55
2019-01-24T04:55:36.134Z,99862.16
2019-01-24T04:56:39.724Z,99870.41
2019-01-24T04:57:43.227Z,99878.72
2019-01-24T04:58:46.765Z,99869.03
2019-01-24T04:59:50.271Z,99876.88
2019-01-24T05:00:53.742Z,99870.92
2019-01-24T05:01:57.314Z,99874.24
2019-01-24T05:03:00.795Z,99875.38
2019-01-24T05:04:04.527Z,99876.19
2019-01-24T05:05:08.109Z,99879.16
2019-01-24T05:06:11.617Z,99880.20
2019-01-24T05:07:15.199Z,99880.20
2019-01-24T05:08:18.715Z,99883.52
2019-01-24T05:09:22.232Z,99886.61
2019-01-24T05:10:25.878Z,99885.93
2019-01-24T05:11:29.431Z,99884.32
2019-01-24T05:12:32.906Z,99886.61
2019-01-24T05:13:36.479Z,99891.41
2019-01-24T05:14:40.013Z,99886.59
2019-01-24T05:15:43.501Z,99893.87
2019-01-24T05:16:47.094Z,99889.05
2019-01-24T05:17:50.731Z,99888.80
2019-01-24T05:18:54.296Z,99890.17
2019-01-24T05:19:57.870Z,99893.48
2019-01-24T05:21:01.492Z,99893.80
2019-01-24T05:22:05.194Z,99893.48
2019-01-24T05:23:08.802Z,99895.39
2019-01-24T05:24:12.302Z,99891.92
2019-01-24T05:25:17.248Z,99893.22
2019-01-24T05:26:20.829Z,99897.61
2019-01-24T05:27:24.335Z,99900.48
2019-01-24T05:28:27.886Z,99898.53
2019-01-24T05:29:31.373Z,99899.12
2019-01-24T05:30:34.973Z,99900.16
2019-01-24T05:31:38.466Z,99907.66
2019-01-24T05:32:42.028Z,99907.67
2019-01-24T05:33:45.957Z,99909.33
2019-01-24T05:34:49.529Z,99915.53
2019-01-24T05:35:53.611Z,99910.03
2019-01-24T05:37:04.847Z,99912.31
2019-01-24T05:38:08.840Z,99913.92
2019-01-24T05:39:12.553Z,99911.05
2019-01-24T05:40:16.346Z,99911.84
2019-01-24T05:41:19.885Z,99915.81
2019-01-24T05:42:23.440Z,99914.98
2019-01-24T05:43:26.891Z,99912.58
2019-01-24T05:44:30.525Z,99921.03
2019-01-24T05:45:34.055Z,99909.89
2019-01-24T05:46:37.579Z,99919.38
2019-01-24T05:47:41.236Z,99921.98
2019-01-24T05:48:44.829Z,99912.52
2019-01-24T05:49:48.383Z,99917.31
2019-01-24T05:50:53.586Z,99916.38
2019-01-24T05:51:57.134Z,99916.58
2019-01-24T05:53:00.637Z,99916.11
2019-01-24T05:54:04.384Z,99913.60
2019-01-24T05:55:10.100Z,99918.42
2019-01-24T05:56:13.598Z,99914.88
2019-01-24T05:57:17.270Z,99920.27
2019-01-24T05:58:20.752Z,99912.36
2019-01-24T05:59:24.318Z,99921.06
2019-01-24T06:00:37.998Z,99929.54
2019-01-24T06:01:41.676Z,99921.44
2019-01-24T06:02:45.428Z,99928.40
2019-01-24T06:03:49.027Z,99918.45
2019-01-24T06:04:52.558Z,99921.53
2019-01-24T06:05:56.146Z,99920.30
2019-01-24T06:06:59.802Z,99922.86
2019-01-24T06:08:03.321Z,99918.33
2019-01-24T06:09:07.837Z,99924.99
2019-01-24T06:10:13.969Z,99921.11
2019-01-24T06:11:17.505Z,99925.72
2019-01-24T06:12:21.178Z,99916.00
2019-01-24T06:13:24.694Z,99921.16
2019-01-24T06:14:28.180Z,99918.88
2019-01-24T06:15:31.822Z,99921.73
2019-01-24T06:16:35.351Z,99919.22
2019-01-24T06:17:38.859Z,99915.09
2019-01-24T06:18:42.404Z,99918.41
2019-01-24T06:19:45.989Z,99913.26
2019-01-24T06:20:49.481Z,99913.59
2019-01-24T06:21:53.044Z,99916.28
2019-01-24T06:22:56.626Z,99919.01
2019-01-24T06:24:00.217Z,99922.39
2019-01-24T06:25:05.264Z,99922.57
2019-01-24T06:26:08.842Z,99923.38
2019-01-24T06:27:12.342Z,99931.28
2019-01-24T06:28:15.922Z,99931.28
2019-01-24T06:29:19.586Z,99931.28
2019-01-24T06:30:23.722Z,99929.50
2019-01-24T06:31:27.311Z,99933.20
2019-01-24T06:32:30.865Z,99928.12
2019-01-24T06:33:34.362Z,99924.17
2019-01-24T06:34:37.892Z,99935.59
2019-01-24T06:35:41.677Z,99931.11
2019-01-24T06:36:45.178Z,99934.03
2019-01-24T06:37:48.880Z,99932.52
2019-01-24T06:38:52.373Z,99934.91
2019-01-24T06:39:55.980Z,99938.65
2019-01-24T06:40:59.536Z,99937.44
2019-01-24T06:42:03.118Z,99938.78
2019-01-24T06:43:06.693Z,99942.75
2019-01-24T06:44:10.326Z,99946.23
2019-01-24T06:45:16.748Z,99947.80
2019-01-24T06:46:20.302Z,99946.85
2019-01-24T06:47:23.878Z,99951.45
2019-01-24T06:48:27.497Z,99955.77
2019-01-24T06:49:30.942Z,99956.72
2019-01-24T06:50:34.479Z,99953.69
2019-01-24T06:51:37.974Z,99953.38
2019-01-24T06:52:41.677Z,99955.55
2019-01-24T06:53:45.140Z,99958.72
2019-01-24T06:54:48.711Z,99970.16
2019-01-24T06:55:52.328Z,99970.01
2019-01-24T06:56:55.962Z,99973.41
2019-01-24T06:57:59.529Z,99969.95
2019-01-24T06:59:03.038Z,99973.31
2019-01-24T07:00:20.396Z,99971.47
2019-01-24T07:01:23.948Z,99974.86
2019-01-24T07:02:27.512Z,99977.92
2019-01-24T07:03:31.044Z,99973.91
2019-01-24T07:04:34.545Z,99971.16
2019-01-24T07:05:38.150Z,99979.63
2019-01-24T07:06:41.734Z,99979.30
2019-01-24T07:07:45.379Z,99987.52
2019-01-24T07:08:48.863Z,99987.34
2019-01-24T07:09:52.453Z,99990.41
2019-01-24T07:10:56.105Z,99988.23
2019-01-24T07:11:59.716Z,99986.30
2019-01-24T07:13:03.984Z,99984.93
2019-01-24T07:14:07.787Z,99984.93
2019-01-24T07:15:14.305Z,99991.94
2019-01-24T07:16:17.872Z,99986.13
2019-01-24T07:17:21.410Z,99982.77
2019-01-24T07:18:25.005Z,99980.32
2019-01-24T07:19:28.529Z,99992.52
2019-01-24T07:20:32.108Z,99999.28
2019-01-24T07:21:35.591Z,99995.41
2019-01-24T07:22:39.636Z,100000.65
2019-01-24T07:23:43.105Z,99992.34
2019-01-24T07:24:46.669Z,100000.00
2019-01-24T07:25:50.165Z,100007.42
2019-01-24T07:26:53.663Z,100006.94
2019-01-24T07:27:57.250Z,100011.62
2019-01-24T07:29:00.780Z,100011.05
2019-01-24T07:30:07.313Z,100007.03
2019-01-24T07:31:10.848Z,100020.17
2019-01-24T07:32:14.400Z,100012.81
2019-01-24T07:33:17.924Z,100013.13
2019-01-24T07:34:21.507Z,100018.38
2019-01-24T07:35:25.057Z,100026.04
2019-01-24T07:36:28.719Z,100023.14
2019-01-24T07:37:32.228Z,100020.97
2019-01-24T07:38:35.808Z,100027.50
2019-01-24T07:39:39.380Z,100028.62
2019-01-24T07:40:42.909Z,100034.44
2019-01-24T07:41:46.512Z,100028.23
2019-01-24T07:42:50.555Z,100031.22
2019-01-24T07:43:54.125Z,100031.55
2019-01-24T07:44:57.615Z,100032.20
2019-01-24T07:46:01.190Z,100037.35
2019-01-24T07:47:04.818Z,100039.58
2019-01-24T07:48:08.463Z,100043.78
2019-01-24T07:49:11.970Z,100043.54
2019-01-24T07:50:15.615Z,100045.56
2019-01-24T07:51:19.158Z,100048.38
2019-01-24T07:52:22.676Z,100046.53
2019-01-24T07:53:26.191Z,100052.91
2019-01-24T07:54:29.709Z,100046.43
2019-01-24T07:55:33.317Z,100051.27
2019-01-24T07:56:36.906Z,100056.75
2019-01-24T07:57:42.537Z,100045.15
2019-01-24T07:58:46.116Z,100053.29
2019-01-24T07:59:49.647Z,100053.29
2019-01-24T08:00:54.759Z,100055.46
2019-01-24T08:01:58.286Z,100055.70
2019-01-24T08:03:01.878Z,100050.55
2019-01-24T08:04:05.609Z,100058.77
2019-01-24T08:05:11.543Z,100055.78
2019-01-24T08:06:15.138Z,100057.72
2019-01-24T08:07:18.689Z,100060.52
2019-01-24T08:08:22.272Z,100056.97
2019-01-24T08:09:25.856Z,100057.61
2019-01-24T08:10:29.521Z,100058.73
2019-01-24T08:11:33.104Z,100063.49
2019-01-24T08:12:36.666Z,100061.32
2019-01-24T08:13:40.188Z,100062.77
2019-01-24T08:14:43.818Z,100060.67
2019-01-24T08:15:47.503Z,100061.77
2019-01-24T08:16:51.025Z,100063.14
2019-01-24T08:17:54.671Z,100065.16
2019-01-24T08:18:58.167Z,100066.84
2019-01-24T08:20:01.753Z,100068.53
2019-01-24T08:21:05.507Z,100069.66
2019-01-24T08:22:09.109Z,100073.45
2019-01-24T08:23:12.593Z,100070.79
2019-01-24T08:24:16.099Z,100078.13
2019-01-24T08:25:19.880Z,100080.05
2019-01-24T08:26:23.456Z,100080.62
2019-01-24T08:27:26.997Z,100080.62
2019-01-24T08:28:30.603Z,100081.10
2019-01-24T08:29:34.221Z,100090.45
2019-01-24T08:30:37.825Z,100082.55
2019-01-24T08:31:41.322Z,100077.72
2019-01-24T08:32:45.023Z,100082.14
2019-01-24T08:33:48.537Z,100083.27
2019-01-24T08:34:52.168Z,100083.03
2019-01-24T08:35:55.730Z,100088.23
2019-01-24T08:36:59.270Z,100089.11
2019-01-24T08:38:03.020Z,100091.05
2019-01-24T08:39:08.546Z,100088.95
2019-01-24T08:40:17.590Z,100089.52
2019-01-24T08:41:21.206Z,100094.75
2019-01-24T08:42:24.714Z,100096.11
2019-01-24T08:43:28.274Z,100106.27
2019-01-24T08:44:31.859Z,100107.06
2019-01-24T08:45:35.410Z,100108.92
2019-01-24T08:46:38.966Z,100102.72
2019-01-24T08:47:42.554Z,100099.91
2019-01-24T08:48:46.038Z,100109.80
2019-01-24T08:49:49.553Z,100107.63
2019-01-24T08:50:54.727Z,100113.11
2019-01-24T08:51:58.275Z,100108.52
2019-01-24T08:53:01.794Z,100099.85
2019-01-24T08:54:05.571Z,100105.53
2019-01-24T08:55:12.127Z,100102.55
2019-01-24T08:56:15.607Z,100097.41
2019-01-24T08:57:19.228Z,100105.33
2019-01-24T08:58:22.748Z,100104.00
2019-01-24T08:59:29.755Z,100108.44
2019-01-24T09:00:31.570Z,100102.47
2019-01-24T09:01:35.101Z,100102.78
2019-01-24T09:02:38.604Z,100102.55
2019-01-24T09:03:43.110Z,100102.05
2019-01-24T09:04:46.622Z,100096.90
2019-01-24T09:05:50.132Z,100101.88
2019-01-24T09:06:53.623Z,100100.23
2019-01-24T09:07:57.385Z,100100.23
2019-01-24T09:09:00.967Z,100100.56
2019-01-24T09:10:07.718Z,100104.91
2019-01-24T09:11:11.201Z,100102.17
2019-01-24T09:12:14.767Z,100099.70
2019-01-24T09:13:18.361Z,100100.76
2019-01-24T09:14:21.916Z,100103.50
2019-01-24T09:15:25.742Z,100102.13
2019-01-24T09:16:29.283Z,100099.95
2019-01-24T09:17:32.852Z,100103.50
2019-01-24T09:18:36.373Z,100110.34
2019-01-24T09:19:39.896Z,100101.88
2019-01-24T09:20:43.442Z,100100.52
2019-01-24T09:21:46.957Z,100109.82
2019-01-24T09:22:55.219Z,100109.58
2019-01-24T09:23:55.857Z,100111.51
2019-01-24T09:24:59.361Z,100109.09
2019-01-24T09:26:02.928Z,100109.41
2019-01-24T09:27:06.552Z,100106.98
2019-01-24T09:28:14.789Z,100101.91
2019-01-24T09:29:15.573Z,100110.21
2019-01-24T09:30:24.793Z,100112.95
2019-01-24T09:31:28.334Z,100114.87
2019-01-24T09:32:31.814Z,100110.14
2019-01-24T09:33:35.307Z,100115.57
2019-01-24T09:34:38.999Z,100116.06
2019-01-24T09:35:42.632Z,100123.32
2019-01-24T09:36:46.222Z,100112.44
2019-01-24T09:37:50.587Z,100115.74
2019-01-24T09:38:54.152Z,100117.92
2019-01-24T09:39:57.676Z,100122.83
2019-01-24T09:41:01.241Z,100112.76
2019-01-24T09:42:04.882Z,100117.42
2019-01-24T09:43:08.450Z,100117.67
2019-01-24T09:44:12.010Z,100117.42
2019-01-24T09:45:20.966Z,100115.81
2019-01-24T09:46:24.482Z,100116.94
2019-01-24T09:47:27.958Z,100118.87
2019-01-24T09:48:31.534Z,100116.66
2019-01-24T09:49:35.031Z,100114.80
2019-01-24T09:50:38.537Z,100112.03
2019-01-24T09:51:42.052Z,100114.94
2019-01-24T09:52:45.615Z,100113.00
2019-01-24T09:53:49.111Z,100115.42
2019-01-24T09:54:52.623Z,100115.67
2019-01-24T09:55:56.212Z,100120.27
2019-01-24T09:56:59.795Z,100118.89
2019-01-24T09:58:03.790Z,100124.94
2019-01-24T09:59:07.521Z,100129.84
2019-01-24T10:00:28.074Z,100120.58
2019-01-24T10:01:31.631Z,100119.21
2019-01-24T10:02:35.207Z,100123.63
2019-01-24T10:03:38.789Z,100123.39
2019-01-24T10:04:42.285Z,100120.41
2019-01-24T10:05:45.785Z,100128.37
2019-01-24T10:06:50.622Z,100128.37
2019-01-24T10:07:54.468Z,100126.77
2019-01-24T10:08:57.970Z,100126.24
2019-01-24T10:10:01.453Z,100127.37
2019-01-24T10:11:05.169Z,100128.98
2019-01-24T10:12:08.793Z,100130.55
2019-01-24T10:13:12.343Z,100123.47
2019-01-24T10:14:15.921Z,100127.67
2019-01-24T10:15:20.561Z,100123.81
2019-01-24T10:16:24.198Z,100125.66
2019-01-24T10:17:27.817Z,100125.10
2019-01-24T10:18:31.406Z,100130.83
2019-01-24T10:19:34.956Z,100127.28
2019-01-24T10:20:38.528Z,100127.84
2019-01-24T10:21:42.084Z,100135.00
2019-01-24T10:22:45.851Z,100133.63
2019-01-24T10:23:49.359Z,100136.69
2019-01-24T10:24:52.985Z,100137.01
2019-01-24T10:25:56.519Z,100137.08
2019-01-24T10:27:00.099Z,100132.73
2019-01-24T10:28:03.850Z,100131.67
2019-01-24T10:29:07.434Z,100131.72
2019-01-24T10:30:14.457Z,100137.72
2019-01-24T10:31:18.029Z,100133.92
2019-01-24T10:32:21.623Z,100135.22
2019-01-24T10:33:25.115Z,100132.34
2019-01-24T10:34:28.768Z,100136.62
2019-01-24T10:35:32.325Z,100134.44
2019-01-24T10:36:35.818Z,100140.09
2019-01-24T10:37:39.468Z,100133.80
2019-01-24T10:38:42.956Z,100136.55
2019-01-24T10:39:46.530Z,100138.19
2019-01-24T10:40:50.158Z,100137.11
2019-01-24T10:41:53.633Z,100140.16
2019-01-24T10:42:57.393Z,100146.76
2019-01-24T10:44:00.873Z,100140.23
2019-01-24T10:45:06.994Z,100145.78
2019-01-24T10:46:10.633Z,100143.92
2019-01-24T10:47:14.177Z,100145.36
2019-01-24T10:48:17.777Z,100145.92
2019-01-24T10:49:21.409Z,100142.67
2019-01-24T10:50:28.903Z,100148.70
2019-01-24T10:51:32.414Z,100145.41
2019-01-24T10:52:35.899Z,100148.59
2019-01-24T10:53:39.475Z,100148.84
2019-01-24T10:54:43.049Z,100145.15
2019-01-24T10:55:46.640Z,100144.83
2019-01-24T10:56:50.151Z,100147.56
2019-01-24T10:57:55.503Z,100142.90
2019-01-24T10:58:59.143Z,100142.66
2019-01-24T11:00:02.861Z,100146.45
2019-01-24T11:01:06.654Z,100135.81
2019-01-24T11:02:10.781Z,100142.97
2019-01-24T11:03:14.532Z,100136.94
2019-01-24T11:04:18.037Z,100138.87
2019-01-24T11:05:21.609Z,100135.64
2019-01-24T11:06:25.194Z,100142.00
2019-01-24T11:07:28.866Z,100144.00
2019-01-24T11:08:32.410Z,100141.02
2019-01-24T11:09:35.913Z,100141.62
2019-01-24T11:10:39.533Z,100143.80
2019-01-24T11:11:43.046Z,100148.42
2019-01-24T11:12:46.973Z,100151.64
2019-01-24T11:13:50.612Z,100149.89
2019-01-24T11:14:54.155Z,100151.26
2019-01-24T11:15:57.713Z,100150.38
2019-01-24T11:17:01.236Z,100148.38
2019-01-24T11:18:06.572Z,100146.69
2019-01-24T11:19:10.199Z,100146.13
2019-01-24T11:20:16.459Z,100144.20
2019-01-24T11:21:20.051Z,100155.14
2019-01-24T11:22:23.605Z,100152.23
2019-01-24T11:23:27.135Z,100146.76
2019-01-24T11:24:30.737Z,100148.45
2019-01-24T11:25:34.296Z,100155.29
2019-01-24T11:26:37.842Z,100142.80
2019-01-24T11:27:41.410Z,100145.61
2019-01-24T11:28:44.937Z,100150.03
2019-01-24T11:29:48.496Z,100144.35
2019-01-24T11:30:53.144Z,100148.22
2019-01-24T11:31:56.693Z,100145.97
2019-01-24T11:33:00.437Z,100147.86
2019-01-24T11:34:04.334Z,100136.84
2019-01-24T11:35:11.114Z,100141.36
2019-01-24T11:36:14.686Z,100139.92
2019-01-24T11:37:18.227Z,100140.48
2019-01-24T11:38:21.804Z,100142.09
2019-01-24T11:39:25.410Z,100142.02
2019-01-24T11:40:29.194Z,100147.77
2019-01-24T11:41:32.841Z,100150.51
2019-01-24T11:42:36.435Z,100150.23
2019-01-24T11:43:40.004Z,100152.73
2019-01-24T11:44:43.489Z,100153.85
2019-01-24T11:45:47.058Z,100145.47
2019-01-24T11:46:50.650Z,100151.26
2019-01-24T11:47:54.217Z,100156.00
2019-01-24T11:48:57.720Z,100155.75
2019-01-24T11:50:01.184Z,100159.05
2019-01-24T11:51:04.818Z,100159.61
2019-01-24T11:52:08.354Z,100157.92
2019-01-24T11:53:11.849Z,100155.68
2019-01-24T11:54:15.395Z,100154.00
2019-01-24T11:55:20.824Z,100156.66
2019-01-24T11:56:24.384Z,100157.72
2019-01-24T11:57:27.895Z,100156.03
2019-01-24T11:58:31.414Z,100159.00
2019-01-24T11:59:34.901Z,100156.84
2019-01-24T12:00:41.040Z,100159.24
2019-01-24T12:01:44.689Z,100153.78
2019-01-24T12:02:48.404Z,100158.52
2019-01-24T12:03:51.913Z,100158.20
2019-01-24T12:04:55.485Z,100157.22
2019-01-24T12:05:58.988Z,100153.12
2019-01-24T12:07:04.178Z,100154.00
2019-01-24T12:08:08.348Z,100155.44
2019-01-24T12:09:12.131Z,100156.80
2019-01-24T12:10:18.428Z,100159.61
2019-01-24T12:11:22.001Z,100152.77
2019-01-24T12:12:25.490Z,100158.10
2019-01-24T12:13:29.002Z,100155.05
2019-01-24T12:14:32.498Z,100158.34
2019-01-24T12:15:36.073Z,100156.34
2019-01-24T12:16:39.575Z,100155.22
2019-01-24T12:17:43.211Z,100155.45
2019-01-24T12:18:46.717Z,100155.95
2019-01-24T12:19:50.223Z,100155.95
2019-01-24T12:20:56.148Z,100163.34